Time;durP1;ratioP1;P1;durP2;ratioP2;P2;SDS_P1;SDS_P2;PMS_P1;PMS_P2;Temp;Humidity;BMP_temperature;BMP_pressure;BME280_temperature;BME280_humidity;BME280_pressure;Samples;Min_cycle;Max_cycle;Signal;HPM_P1;HPM_P2
2021/11/25 00:00:10;;;;;;;2.35;1.42;;;-3.50;99.90;;;;;;5105749;28;20028;-66
2021/11/25 00:02:37;;;;;;;2.63;1.35;;;-3.50;99.90;;;;;;5114520;28;20014;-66
2021/11/25 00:05:03;;;;;;;2.47;1.50;;;-3.60;99.90;;;;;;5114476;28;20077;-66
2021/11/25 00:07:29;;;;;;;5.47;1.90;;;-3.60;99.90;;;;;;5112974;28;20020;-66
2021/11/25 00:09:55;;;;;;;2.55;1.77;;;-3.60;99.90;;;;;;5112875;28;20035;-66
2021/11/25 00:12:21;;;;;;;2.50;1.50;;;-3.60;99.90;;;;;;5099966;28;20414;-66
2021/11/25 00:14:46;;;;;;;2.20;1.52;;;-3.60;99.90;;;;;;5099815;28;20031;-66
2021/11/25 00:17:12;;;;;;;2.53;1.58;;;-3.60;99.90;;;;;;5114227;28;20103;-66
2021/11/25 00:19:38;;;;;;;2.40;1.45;;;-3.60;99.90;;;;;;5113717;28;20011;-66
2021/11/25 00:22:04;;;;;;;1.35;1.25;;;-3.70;99.90;;;;;;5114152;28;20028;-66
2021/11/25 00:24:30;;;;;;;3.05;1.40;;;-3.60;99.90;;;;;;5114330;28;20036;-66
2021/11/25 00:26:55;;;;;;;4.78;1.88;;;-3.60;99.90;;;;;;5114175;28;20413;-66
2021/11/25 00:29:21;;;;;;;9.20;1.48;;;-3.60;99.90;;;;;;5112627;28;20440;-66
2021/11/25 00:31:47;;;;;;;3.53;1.10;;;-3.60;99.90;;;;;;5099643;28;20019;-66
2021/11/25 00:34:13;;;;;;;4.82;2.10;;;-3.60;99.90;;;;;;5112659;28;20027;-66
2021/11/25 00:36:39;;;;;;;1.48;1.38;;;-3.60;99.90;;;;;;5113484;28;20494;-66
2021/11/25 00:39:04;;;;;;;3.33;1.50;;;-3.60;99.90;;;;;;5113604;28;20027;-67
2021/11/25 00:41:30;;;;;;;1.83;1.35;;;-3.70;99.90;;;;;;5099556;28;20081;-67
2021/11/25 00:43:56;;;;;;;3.63;1.45;;;-3.60;99.90;;;;;;5113771;28;20038;-66
2021/11/25 00:46:23;;;;;;;2.30;1.20;;;-3.60;99.90;;;;;;5113640;28;20383;-66
2021/11/25 00:48:48;;;;;;;1.48;1.27;;;-3.60;99.90;;;;;;5113546;28;20028;-66
2021/11/25 00:51:14;;;;;;;1.40;1.30;;;-3.50;99.90;;;;;;5113802;28;20425;-66
2021/11/25 00:53:40;;;;;;;1.83;1.38;;;-3.50;99.90;;;;;;5113237;28;20023;-66
2021/11/25 00:56:06;;;;;;;2.83;1.30;;;-3.50;99.90;;;;;;5113473;28;20542;-66
2021/11/25 00:58:31;;;;;;;1.40;1.30;;;-3.50;99.90;;;;;;5113272;28;20106;-66
2021/11/25 01:00:57;;;;;;;4.38;1.38;;;-3.50;99.90;;;;;;5108941;27;20023;-67
2021/11/25 01:03:23;;;;;;;4.25;1.48;;;-3.40;99.90;;;;;;5103374;28;20087;-66
2021/11/25 01:05:49;;;;;;;3.42;1.23;;;-3.50;99.90;;;;;;5113239;28;20020;-67
2021/11/25 01:08:16;;;;;;;1.75;1.25;;;-3.50;99.90;;;;;;5113327;28;20556;-66
2021/11/25 01:10:42;;;;;;;3.97;1.40;;;-3.50;99.90;;;;;;5112994;28;20028;-66
2021/11/25 01:13:08;;;;;;;3.13;1.20;;;-3.50;99.90;;;;;;5105221;28;20032;-66
2021/11/25 01:15:35;;;;;;;3.70;1.50;;;-3.40;99.90;;;;;;5105652;28;20020;-66
2021/11/25 01:18:02;;;;;;;1.80;1.13;;;-3.40;99.90;;;;;;5112480;28;20035;-66
2021/11/25 01:20:28;;;;;;;1.10;1.00;;;-3.40;99.90;;;;;;5113101;28;20460;-66
2021/11/25 01:22:55;;;;;;;3.83;1.30;;;-3.40;99.90;;;;;;5112617;28;20019;-67
2021/11/25 01:25:21;;;;;;;6.53;1.45;;;-3.40;99.90;;;;;;5112837;28;20034;-67
2021/11/25 01:27:47;;;;;;;1.55;1.30;;;-3.40;99.90;;;;;;5112558;28;20019;-67
2021/11/25 01:30:14;;;;;;;2.75;1.30;;;-3.40;99.90;;;;;;5113005;28;20034;-67
2021/11/25 01:32:40;;;;;;;2.90;1.60;;;-3.30;99.90;;;;;;5112897;28;20030;-67
2021/11/25 01:35:07;;;;;;;2.45;1.70;;;-3.30;99.90;;;;;;5112504;28;20027;-67
2021/11/25 01:37:33;;;;;;;3.22;1.30;;;-3.30;99.90;;;;;;5113043;28;20476;-67
2021/11/25 01:39:59;;;;;;;2.80;1.38;;;-3.30;99.90;;;;;;5112419;28;20015;-67
2021/11/25 01:42:25;;;;;;;1.92;1.35;;;-3.20;99.90;;;;;;5111374;28;20076;-67
2021/11/25 01:44:51;;;;;;;1.35;1.25;;;-3.20;99.90;;;;;;5112493;28;20424;-67
2021/11/25 01:47:17;;;;;;;2.15;1.30;;;-3.20;99.90;;;;;;5104656;28;20819;-67
2021/11/25 01:49:42;;;;;;;3.28;1.63;;;-3.20;99.90;;;;;;5105996;28;20044;-66
2021/11/25 01:52:08;;;;;;;1.45;1.27;;;-3.20;99.90;;;;;;5112363;28;20494;-66
2021/11/25 01:54:34;;;;;;;2.35;1.20;;;-3.20;99.90;;;;;;5112492;28;20391;-66
2021/11/25 01:56:59;;;;;;;4.82;1.35;;;-3.20;99.90;;;;;;5110742;28;20145;-67
2021/11/25 01:59:25;;;;;;;2.83;1.23;;;-3.20;99.90;;;;;;5112035;28;20424;-67
2021/11/25 02:01:52;;;;;;;2.30;1.23;;;-3.20;99.90;;;;;;5112034;28;20019;-67
2021/11/25 02:04:18;;;;;;;3.38;1.13;;;-3.20;99.90;;;;;;5110720;28;20023;-67
2021/11/25 02:06:44;;;;;;;3.58;1.13;;;-3.30;99.90;;;;;;5112310;28;20016;-66
2021/11/25 02:09:11;;;;;;;3.40;1.00;;;-3.30;99.90;;;;;;5112171;28;20067;-66
2021/11/25 02:11:37;;;;;;;2.00;1.20;;;-3.30;99.90;;;;;;5112137;28;20032;-66
2021/11/25 02:14:04;;;;;;;1.38;1.17;;;-3.40;99.90;;;;;;5111822;28;20027;-67
2021/11/25 02:16:30;;;;;;;3.35;1.13;;;-3.50;99.90;;;;;;5112121;28;20107;-67
2021/11/25 02:18:58;;;;;;;2.38;1.20;;;-3.60;99.90;;;;;;5112335;28;20028;-66
2021/11/25 02:21:28;;;;;;;1.10;1.00;;;-3.60;99.90;;;;;;5112133;28;20080;-66
2021/11/25 02:23:54;;;;;;;1.35;1.23;;;-3.60;99.90;;;;;;5111778;28;20019;-66
2021/11/25 02:55:24;;;;;;;0.90;0.90;;;-3.80;99.90;;;;;;5116038;28;20122;-67
2021/11/25 02:57:50;;;;;;;2.35;1.23;;;-3.80;99.90;;;;;;5115685;28;20078;-67
2021/11/25 03:00:37;;;;;;;1.10;1.00;;;-3.80;99.90;;;;;;5115811;28;20481;-66
2021/11/25 03:03:07;;;;;;;1.65;1.17;;;-3.80;99.90;;;;;;5102187;28;20154;-66
2021/11/25 03:05:34;;;;;;;1.20;1.08;;;-3.80;99.90;;;;;;5115687;28;20027;-66
2021/11/25 03:08:02;;;;;;;1.08;0.88;;;-3.90;99.90;;;;;;5115834;28;20031;-66
2021/11/25 03:10:33;;;;;;;1.45;1.13;;;-3.90;99.90;;;;;;5115547;28;20035;-66
2021/11/25 03:12:59;;;;;;;1.70;1.10;;;-4.00;99.90;;;;;;5115387;28;20102;-66
2021/11/25 03:15:30;;;;;;;1.10;1.00;;;-4.00;99.90;;;;;;5115196;28;20111;-67
2021/11/25 03:17:55;;;;;;;2.47;1.27;;;-4.00;99.90;;;;;;5115199;28;20471;-67
2021/11/25 03:20:22;;;;;;;1.50;1.40;;;-4.00;99.90;;;;;;5115193;28;20023;-66
2021/11/25 03:22:47;;;;;;;2.30;1.20;;;-4.10;99.90;;;;;;5115199;28;20024;-66
2021/11/25 03:25:13;;;;;;;2.35;1.30;;;-4.00;99.90;;;;;;5115084;28;20028;-66
2021/11/25 03:27:39;;;;;;;1.63;1.40;;;-4.00;99.90;;;;;;5113823;28;20027;-66
2021/11/25 03:30:06;;;;;;;2.03;1.20;;;-4.00;99.90;;;;;;5113936;28;20122;-67
2021/11/25 03:32:31;;;;;;;2.67;1.23;;;-3.90;99.90;;;;;;5110142;28;20107;-66
2021/11/25 03:34:57;;;;;;;1.08;1.05;;;-3.90;99.90;;;;;;5115052;28;20115;-67
2021/11/25 03:37:23;;;;;;;2.92;1.10;;;-3.90;99.90;;;;;;5115137;28;20024;-67
2021/11/25 03:39:48;;;;;;;1.67;1.30;;;-3.90;99.90;;;;;;5114877;28;20019;-66
2021/11/25 03:42:14;;;;;;;1.30;1.13;;;-4.00;99.90;;;;;;5114849;28;20026;-67
2021/11/25 03:44:43;;;;;;;1.65;1.00;;;-4.00;99.90;;;;;;5114964;28;20471;-67
2021/11/25 03:47:09;;;;;;;3.38;1.38;;;-4.00;99.90;;;;;;5114833;28;20509;-67
2021/11/25 03:49:35;;;;;;;1.35;1.20;;;-4.00;99.90;;;;;;5114832;28;20063;-67
2021/11/25 03:52:00;;;;;;;1.88;1.15;;;-4.00;99.90;;;;;;5114705;28;20536;-67
2021/11/25 03:54:26;;;;;;;2.40;1.20;;;-4.10;99.90;;;;;;5114500;28;20035;-67
2021/11/25 03:56:52;;;;;;;1.30;1.20;;;-4.10;99.90;;;;;;5113165;28;20119;-66
2021/11/25 03:59:17;;;;;;;1.20;1.10;;;-4.20;99.90;;;;;;5114654;28;20032;-65
2021/11/25 04:01:43;;;;;;;2.05;1.30;;;-4.20;99.90;;;;;;5100064;28;20467;-66
2021/11/25 04:04:10;;;;;;;1.83;1.20;;;-4.20;99.90;;;;;;5114301;28;20098;-66
2021/11/25 04:06:36;;;;;;;1.48;1.13;;;-4.20;99.90;;;;;;5114274;28;20019;-67
2021/11/25 04:09:03;;;;;;;1.15;1.02;;;-4.20;99.90;;;;;;5114303;28;20027;-67
2021/11/25 04:11:29;;;;;;;2.00;1.38;;;-4.20;99.90;;;;;;5114028;28;20066;-67
2021/11/25 04:13:56;;;;;;;2.10;1.15;;;-4.20;99.90;;;;;;5114544;28;20050;-67
2021/11/25 04:16:22;;;;;;;0.90;0.90;;;-4.20;99.90;;;;;;5114080;28;20447;-67
2021/11/25 04:18:47;;;;;;;1.85;1.20;;;-4.20;99.90;;;;;;5114519;28;20054;-67
2021/11/25 04:21:13;;;;;;;2.78;1.17;;;-4.20;99.90;;;;;;5114031;28;20548;-66
2021/11/25 04:23:39;;;;;;;2.65;1.40;;;-4.20;99.90;;;;;;5114337;28;20026;-67
2021/11/25 04:26:05;;;;;;;4.97;1.70;;;-4.20;99.90;;;;;;5114408;28;20513;-67
2021/11/25 04:28:30;;;;;;;1.63;1.13;;;-4.30;99.90;;;;;;5114091;28;20115;-67
2021/11/25 04:36:24;;;;;;;1.48;1.38;;;-4.20;99.90;;;;;;5114095;28;20039;-66
2021/11/25 04:38:50;;;;;;;1.55;1.33;;;-4.20;99.90;;;;;;5113573;28;20032;-66
2021/11/25 04:41:16;;;;;;;1.25;1.15;;;-4.10;99.90;;;;;;5112371;28;20054;-65
2021/11/25 04:43:41;;;;;;;1.23;1.08;;;-4.20;99.90;;;;;;5113727;28;20028;-66
2021/11/25 04:46:07;;;;;;;1.95;1.40;;;-4.20;99.90;;;;;;5113382;27;20474;-66
2021/11/25 04:48:33;;;;;;;1.25;1.15;;;-4.30;99.90;;;;;;5096470;28;20081;-66
2021/11/25 04:50:59;;;;;;;1.27;1.17;;;-4.30;99.90;;;;;;5107855;28;20023;-67
2021/11/25 04:53:25;;;;;;;1.30;1.20;;;-4.30;99.90;;;;;;5112793;28;20384;-67
2021/11/25 04:55:51;;;;;;;1.40;1.30;;;-4.30;99.90;;;;;;5113200;27;20487;-67
2021/11/25 04:58:17;;;;;;;3.35;1.15;;;-4.40;99.90;;;;;;5113182;27;20065;-66
2021/11/25 05:00:44;;;;;;;1.23;1.13;;;-4.40;99.90;;;;;;5113255;28;20011;-66
2021/11/25 05:03:10;;;;;;;2.38;1.40;;;-4.40;99.90;;;;;;5113208;28;20023;-67
2021/11/25 05:05:35;;;;;;;1.98;1.20;;;-4.40;99.90;;;;;;5113305;28;20428;-67
2021/11/25 05:08:01;;;;;;;2.78;1.27;;;-4.40;99.90;;;;;;5112387;27;20031;-66
2021/11/25 05:10:27;;;;;;;1.38;1.27;;;-4.40;99.90;;;;;;5092750;28;20395;-67
2021/11/25 05:12:53;;;;;;;1.83;1.15;;;-4.40;99.90;;;;;;5105529;28;20019;-66
2021/11/25 05:15:19;;;;;;;2.28;1.25;;;-4.40;99.90;;;;;;5112842;28;20024;-67
2021/11/25 05:17:45;;;;;;;2.55;1.63;;;-4.40;99.90;;;;;;5113116;28;20019;-67
2021/11/25 05:20:13;;;;;;;1.70;1.50;;;-4.40;99.90;;;;;;5112830;28;20026;-67
2021/11/25 05:22:39;;;;;;;4.00;1.42;;;-4.40;99.90;;;;;;5113063;28;20024;-67
2021/11/25 05:25:07;;;;;;;2.25;1.50;;;-4.30;99.90;;;;;;5113081;28;20026;-66
2021/11/25 05:27:34;;;;;;;1.42;1.10;;;-4.20;99.90;;;;;;5112644;28;20024;-66
2021/11/25 05:29:59;;;;;;;2.03;1.45;;;-4.20;99.90;;;;;;5112736;28;20038;-67
2021/11/25 05:32:25;;;;;;;1.30;1.20;;;-4.20;99.90;;;;;;5112762;28;20020;-66
2021/11/25 05:34:51;;;;;;;2.47;1.40;;;-4.10;99.90;;;;;;5110978;28;20414;-66
2021/11/25 05:37:17;;;;;;;3.42;1.30;;;-4.10;99.90;;;;;;5112157;28;20026;-66
2021/11/25 05:39:43;;;;;;;1.20;1.10;;;-4.00;99.90;;;;;;5112619;28;20022;-67
2021/11/25 05:42:10;;;;;;;1.40;1.30;;;-3.60;99.90;;;;;;5102922;28;20544;-65
2021/11/25 05:44:36;;;;;;;2.95;1.52;;;-3.10;99.90;;;;;;5094116;28;20023;-65
2021/11/25 05:47:02;;;;;;;1.73;1.38;;;-3.30;99.90;;;;;;5095694;28;20479;-66
2021/11/25 05:49:28;;;;;;;2.03;1.20;;;-3.50;99.90;;;;;;5092267;28;20031;-65
2021/11/25 05:51:53;;;;;;;2.00;1.60;;;-3.60;99.90;;;;;;5091853;28;20425;-66
2021/11/25 05:54:19;;;;;;;2.75;1.92;;;-3.70;99.90;;;;;;5098115;28;20012;-66
2021/11/25 05:56:45;;;;;;;2.83;1.80;;;-3.70;99.90;;;;;;5093585;28;20063;-67
2021/11/25 05:59:11;;;;;;;3.67;2.00;;;-3.80;99.90;;;;;;5093340;28;20365;-67
2021/11/25 06:01:37;;;;;;;4.07;1.08;;;-3.80;99.90;;;;;;5096548;28;20027;-67
2021/11/25 06:04:03;;;;;;;1.67;1.30;;;-3.90;99.90;;;;;;5097099;28;20111;-67
2021/11/25 06:06:28;;;;;;;2.42;1.10;;;-3.90;99.90;;;;;;5098599;28;20539;-67
2021/11/25 06:08:54;;;;;;;2.42;1.38;;;-3.90;99.90;;;;;;5093742;28;20040;-67
2021/11/25 06:11:20;;;;;;;1.83;1.50;;;-3.90;99.90;;;;;;5098187;28;20030;-67
2021/11/25 06:13:46;;;;;;;1.80;1.27;;;-4.00;99.90;;;;;;5091661;28;20051;-67
2021/11/25 06:16:12;;;;;;;1.88;1.30;;;-4.10;99.90;;;;;;5094878;28;20148;-67
2021/11/25 06:18:38;;;;;;;2.53;1.35;;;-4.10;99.90;;;;;;5095976;28;20467;-65
2021/11/25 06:21:04;;;;;;;1.42;1.27;;;-4.10;99.90;;;;;;5092236;28;20028;-65
2021/11/25 06:23:30;;;;;;;2.30;1.35;;;-4.10;99.90;;;;;;5092597;28;20356;-65
2021/11/25 06:25:56;;;;;;;1.60;1.50;;;-4.10;99.90;;;;;;5091995;28;20031;-67
2021/11/25 06:28:22;;;;;;;3.80;1.63;;;-4.00;99.90;;;;;;5092368;28;20539;-68
2021/11/25 06:30:48;;;;;;;5.53;1.83;;;-4.00;99.90;;;;;;5094051;28;20032;-68
2021/11/25 06:33:13;;;;;;;4.30;1.80;;;-3.80;99.90;;;;;;5111948;28;20466;-68
2021/11/25 06:35:40;;;;;;;2.30;1.50;;;-3.90;99.90;;;;;;5111625;28;20079;-68
2021/11/25 06:38:07;;;;;;;3.10;1.52;;;-4.00;99.90;;;;;;5101028;28;20085;-68
2021/11/25 06:40:34;;;;;;;2.85;1.50;;;-4.00;99.90;;;;;;5111572;28;20024;-68
2021/11/25 06:43:03;;;;;;;4.22;1.83;;;-4.00;99.90;;;;;;5111764;28;20034;-68
2021/11/25 06:45:29;;;;;;;2.67;1.70;;;-0.60;99.90;;;;;;5111335;28;20028;-74
2021/11/25 06:47:55;;;;;;;4.55;1.70;;;0.50;99.90;;;;;;5111552;28;20026;-69
2021/11/25 06:50:23;;;;;;;4.07;1.98;;;-0.60;99.90;;;;;;5104261;28;20063;-69
2021/11/25 06:52:49;;;;;;;5.63;2.00;;;-0.50;99.90;;;;;;5110546;28;20020;-66
2021/11/25 06:55:16;;;;;;;3.92;1.88;;;-1.10;99.90;;;;;;5111280;28;20023;-67
2021/11/25 06:57:47;;;;;;;6.05;1.50;;;-1.70;99.90;;;;;;5111150;28;20070;-66
2021/11/25 07:00:15;;;;;;;3.55;2.17;;;-2.20;99.90;;;;;;5111536;28;20692;-66
2021/11/25 07:02:41;;;;;;;3.30;1.90;;;-2.60;99.90;;;;;;5111022;28;20020;-65
2021/11/25 07:05:07;;;;;;;2.72;1.70;;;-2.80;99.90;;;;;;5106274;28;20024;-67
2021/11/25 07:07:34;;;;;;;2.25;1.75;;;-3.00;99.90;;;;;;5105743;28;20047;-68
2021/11/25 07:10:00;;;;;;;5.22;1.77;;;-3.10;99.90;;;;;;5111358;28;20043;-67
2021/11/25 07:12:25;;;;;;;2.17;1.58;;;-3.10;99.90;;;;;;5110001;28;20379;-66
2021/11/25 07:14:51;;;;;;;4.10;2.08;;;-3.00;99.90;;;;;;5111358;28;20051;-65
2021/11/25 07:17:17;;;;;;;3.00;1.80;;;-2.50;99.90;;;;;;5114440;28;20043;-67
2021/11/25 07:19:43;;;;;;;1.73;1.40;;;-2.70;99.90;;;;;;5115580;28;20051;-67
2021/11/25 07:22:08;;;;;;;2.65;1.35;;;-2.90;99.90;;;;;;5109113;28;20016;-67
2021/11/25 07:24:34;;;;;;;2.22;1.50;;;-3.10;99.90;;;;;;5098823;28;20024;-62
2021/11/25 07:27:01;;;;;;;2.78;1.20;;;-3.20;99.90;;;;;;5097487;28;20379;-63
2021/11/25 07:29:28;;;;;;;1.50;1.13;;;-3.30;99.90;;;;;;5106808;28;20040;-62
2021/11/25 07:31:53;;;;;;;2.55;1.85;;;-3.40;99.90;;;;;;5114709;28;20098;-63
2021/11/25 07:34:19;;;;;;;1.23;1.15;;;-3.60;99.90;;;;;;5114840;28;20108;-62
2021/11/25 07:36:45;;;;;;;1.63;1.40;;;-3.70;99.90;;;;;;5105401;28;20026;-61
2021/11/25 07:39:11;;;;;;;1.42;1.33;;;-3.80;99.90;;;;;;5103026;28;20020;-61
2021/11/25 07:41:38;;;;;;;3.55;1.70;;;-3.80;99.90;;;;;;5114975;28;20704;-61
2021/11/25 07:44:05;;;;;;;3.20;1.60;;;-3.80;99.90;;;;;;5114766;28;20062;-61
2021/11/25 07:46:31;;;;;;;1.70;1.60;;;-3.90;99.90;;;;;;5113014;28;20437;-61
2021/11/25 07:48:58;;;;;;;2.67;1.52;;;-4.00;99.90;;;;;;5114435;28;20028;-64
2021/11/25 07:51:24;;;;;;;3.65;1.85;;;-4.00;99.90;;;;;;5114414;28;20030;-62
2021/11/25 07:53:50;;;;;;;1.95;1.55;;;-4.00;99.90;;;;;;5114555;28;20020;-62
2021/11/25 07:56:16;;;;;;;4.07;1.98;;;-4.10;99.90;;;;;;5109995;28;20166;-65
2021/11/25 07:58:42;;;;;;;3.28;1.60;;;-4.20;99.90;;;;;;5110543;28;20031;-65
2021/11/25 08:01:07;;;;;;;2.40;1.60;;;-4.10;99.90;;;;;;5114049;28;20024;-65
2021/11/25 08:03:33;;;;;;;1.35;1.20;;;-4.20;99.90;;;;;;5114560;28;20087;-64
2021/11/25 08:05:59;;;;;;;2.50;1.50;;;-4.30;99.90;;;;;;5114097;28;20027;-63
2021/11/25 08:08:25;;;;;;;2.92;1.80;;;-4.40;99.90;;;;;;5113988;28;20038;-64
2021/11/25 08:10:51;;;;;;;2.22;1.52;;;-4.40;99.90;;;;;;5114228;28;20036;-65
2021/11/25 08:13:17;;;;;;;1.60;1.20;;;-4.40;99.90;;;;;;5113991;27;20110;-65
2021/11/25 08:15:42;;;;;;;2.08;1.38;;;-2.50;99.90;;;;;;5101149;28;20364;-63
2021/11/25 08:18:08;;;;;;;3.42;1.70;;;0.20;99.90;;;;;;5096651;28;20031;-63
2021/11/25 08:20:34;;;;;;;1.95;1.50;;;-1.10;99.90;;;;;;5095261;28;20066;-64
2021/11/25 08:23:00;;;;;;;2.90;1.60;;;-2.30;99.90;;;;;;5113955;28;20019;-64
2021/11/25 08:25:28;;;;;;;4.80;1.90;;;-3.00;99.90;;;;;;5114123;28;20162;-64
2021/11/25 08:27:56;;;;;;;4.90;1.52;;;-3.50;99.90;;;;;;5106705;28;20016;-65
2021/11/25 08:30:24;;;;;;;3.00;1.52;;;-3.80;99.90;;;;;;5098833;28;20124;-64
2021/11/25 08:32:50;;;;;;;2.72;1.38;;;-4.00;99.90;;;;;;5103792;28;20494;-64
2021/11/25 08:35:16;;;;;;;3.15;1.70;;;-4.20;99.90;;;;;;5094987;28;20032;-64
2021/11/25 08:37:42;;;;;;;3.38;2.00;;;-4.40;99.90;;;;;;5093993;28;20024;-64
2021/11/25 08:40:10;;;;;;;1.85;1.67;;;-4.50;99.90;;;;;;5097529;28;20024;-63
2021/11/25 08:42:37;;;;;;;2.70;1.67;;;-4.60;99.90;;;;;;5099790;28;20069;-63
2021/11/25 08:45:04;;;;;;;2.30;1.67;;;-4.60;99.90;;;;;;5114102;28;20043;-63
2021/11/25 08:47:30;;;;;;;1.83;1.40;;;-4.60;99.90;;;;;;5113525;28;20386;-63
2021/11/25 08:49:56;;;;;;;1.52;1.38;;;-4.70;99.90;;;;;;5113341;28;20038;-64
2021/11/25 08:52:21;;;;;;;4.15;1.77;;;-4.70;99.90;;;;;;5113340;28;20365;-64
2021/11/25 08:54:47;;;;;;;3.35;1.80;;;-4.80;99.90;;;;;;5113320;28;20058;-65
2021/11/25 08:57:15;;;;;;;4.07;1.90;;;-4.90;99.90;;;;;;5095235;28;20044;-65
2021/11/25 08:59:41;;;;;;;2.28;2.00;;;-4.90;99.90;;;;;;5097351;28;20023;-64
2021/11/25 09:02:06;;;;;;;5.65;2.05;;;-5.00;99.90;;;;;;5104166;28;20076;-66
2021/11/25 09:04:32;;;;;;;1.70;1.52;;;-5.10;99.90;;;;;;5097483;28;20479;-65
2021/11/25 09:06:58;;;;;;;3.40;1.83;;;-5.10;99.90;;;;;;5096282;28;20115;-64
2021/11/25 09:09:24;;;;;;;6.32;1.95;;;-5.20;99.90;;;;;;5097660;28;20111;-69
2021/11/25 09:11:50;;;;;;;5.50;1.70;;;-5.10;99.90;;;;;;5113094;28;20559;-65
2021/11/25 09:14:16;;;;;;;2.25;1.65;;;-5.10;99.90;;;;;;5113008;28;20031;-65
2021/11/25 09:16:42;;;;;;;3.72;1.55;;;-5.20;99.90;;;;;;5112673;28;20022;-67
2021/11/25 09:19:08;;;;;;;1.80;1.70;;;-2.60;99.90;;;;;;5112748;28;20084;-65
2021/11/25 09:21:34;;;;;;;2.30;1.80;;;-2.40;99.90;;;;;;5107680;28;20024;-64
2021/11/25 09:24:04;;;;;;;2.95;1.90;;;-2.50;99.90;;;;;;5092573;28;20031;-64
2021/11/25 09:26:31;;;;;;;3.55;1.80;;;-3.40;99.90;;;;;;5101783;28;20023;-65
2021/11/25 09:28:58;;;;;;;3.08;1.85;;;-3.90;99.90;;;;;;5092170;28;20048;-65
2021/11/25 09:31:32;;;;;;;2.35;1.63;;;-4.20;99.90;;;;;;5099291;28;20020;-65
2021/11/25 09:33:59;;;;;;;2.28;1.50;;;-4.50;99.90;;;;;;5105197;28;20407;-65
2021/11/25 09:36:25;;;;;;;1.90;1.80;;;-4.70;99.90;;;;;;5105934;28;20023;-65
2021/11/25 09:38:53;;;;;;;2.47;1.73;;;-4.90;99.90;;;;;;5112069;28;20050;-65
2021/11/25 09:41:19;;;;;;;2.45;1.85;;;-4.90;99.90;;;;;;5112465;28;20026;-64
2021/11/25 09:43:45;;;;;;;1.90;1.67;;;-5.10;99.90;;;;;;5097712;28;20032;-64
2021/11/25 09:46:11;;;;;;;3.50;1.90;;;-5.10;99.90;;;;;;5098521;28;20050;-65
2021/11/25 09:48:40;;;;;;;2.92;1.98;;;-5.10;99.90;;;;;;5111970;28;20115;-64
2021/11/25 09:51:07;;;;;;;1.05;1.05;;;-5.20;99.90;;;;;;5112295;28;20020;-64
2021/11/25 09:53:33;;;;;;;1.67;1.25;;;-5.30;99.90;;;;;;5112403;28;20070;-64
2021/11/25 09:56:00;;;;;;;2.33;1.70;;;-5.50;99.90;;;;;;5111880;28;20043;-65
2021/11/25 09:58:30;;;;;;;4.95;1.70;;;-5.60;99.90;;;;;;5112520;28;20344;-64
2021/11/25 10:01:02;;;;;;;2.80;1.77;;;-5.60;99.90;;;;;;5097970;28;20361;-64
2021/11/25 10:03:29;;;;;;;2.25;1.40;;;-5.70;99.90;;;;;;5111918;28;20379;-66
2021/11/25 10:05:57;;;;;;;1.60;1.48;;;-5.80;99.90;;;;;;5111905;28;20033;-64
2021/11/25 10:08:34;;;;;;;2.25;1.70;;;-5.80;99.90;;;;;;5112160;28;20016;-66
2021/11/25 10:11:14;;;;;;;3.42;1.85;;;-5.90;99.90;;;;;;5095262;28;20030;-66
2021/11/25 10:13:47;;;;;;;2.10;1.27;;;-6.00;99.90;;;;;;5105747;28;20011;-66
2021/11/25 10:16:17;;;;;;;1.13;1.08;;;-6.00;99.90;;;;;;5091650;28;20115;-66
2021/11/25 10:18:44;;;;;;;1.52;1.42;;;-6.00;99.90;;;;;;5106929;28;20027;-66
2021/11/25 10:21:15;;;;;;;1.40;1.30;;;-5.50;99.90;;;;;;5103981;28;20024;-65
2021/11/25 10:23:44;;;;;;;2.13;1.17;;;-4.50;99.90;;;;;;5105472;28;20020;-66
2021/11/25 10:26:22;;;;;;;2.20;1.70;;;-5.00;99.90;;;;;;5111741;28;20413;-65
2021/11/25 10:28:51;;;;;;;1.60;1.50;;;-4.90;99.90;;;;;;5111668;28;20040;-63
2021/11/25 10:31:21;;;;;;;2.27;1.50;;;-5.30;99.90;;;;;;5111505;28;20024;-67
2021/11/25 10:34:10;;;;;;;2.78;1.60;;;-5.50;99.90;;;;;;5111543;28;20042;-66
2021/11/25 10:42:40;;;;;;;5.05;1.50;;;-6.10;99.90;;;;;;5097451;28;20533;-64
2021/11/25 10:45:12;;;;;;;3.28;1.60;;;-6.20;99.90;;;;;;5105286;28;20031;-64
2021/11/25 10:47:38;;;;;;;3.08;1.50;;;-6.30;99.90;;;;;;5101381;28;20020;-63
2021/11/25 10:50:09;;;;;;;1.42;1.30;;;-6.40;99.90;;;;;;5093806;28;20059;-64
2021/11/25 10:52:41;;;;;;;;;;;-6.40;99.90;;;;;;5098628;28;20030;-63
2021/11/25 10:55:14;;;;;;;2.30;1.20;;;-6.40;99.90;;;;;;5108362;28;19916;-63
2021/11/25 10:57:44;;;;;;;1.75;1.40;;;-6.50;99.90;;;;;;5111354;28;20093;-63
2021/11/25 11:00:13;;;;;;;1.85;1.63;;;-6.50;99.90;;;;;;5104654;28;20058;-64
2021/11/25 11:02:39;;;;;;;1.52;1.42;;;-6.50;99.90;;;;;;5115112;28;20028;-63
2021/11/25 11:05:10;;;;;;;1.83;1.40;;;-6.60;99.90;;;;;;5115281;28;20102;-64
2021/11/25 11:07:39;;;;;;;1.70;1.60;;;-6.60;99.90;;;;;;5114078;28;20068;-65
2021/11/25 11:10:22;;;;;;;2.97;1.40;;;-6.60;99.90;;;;;;5101815;28;20035;-65
2021/11/25 11:13:15;;;;;;;1.80;1.40;;;-6.70;99.90;;;;;;5115111;28;20387;-65
2021/11/25 11:21:26;;;;;;;1.58;1.45;;;-6.70;99.90;;;;;;5115424;28;20032;-65
2021/11/25 11:23:53;;;;;;;3.22;1.50;;;-6.70;99.90;;;;;;5113933;28;20027;-64
2021/11/25 11:26:19;;;;;;;1.83;1.40;;;-6.60;99.90;;;;;;5111923;28;20030;-64
2021/11/25 11:28:45;;;;;;;1.60;1.50;;;-6.60;99.90;;;;;;5097061;28;20138;-65
2021/11/25 11:31:11;;;;;;;1.40;1.30;;;-6.60;99.90;;;;;;5107555;28;20041;-65
2021/11/25 11:33:37;;;;;;;1.50;1.38;;;-6.70;99.90;;;;;;5112063;28;20124;-65
2021/11/25 11:36:03;;;;;;;4.78;1.77;;;-6.70;99.90;;;;;;5110738;28;20583;-66
2021/11/25 11:38:32;;;;;;;2.08;1.48;;;-6.70;99.90;;;;;;5107765;28;20065;-64
2021/11/25 11:40:59;;;;;;;2.35;1.45;;;-6.70;99.90;;;;;;5102240;28;20086;-64
2021/11/25 11:43:26;;;;;;;1.95;1.75;;;-6.70;99.90;;;;;;5115106;28;20035;-65
2021/11/25 11:45:52;;;;;;;3.65;1.63;;;-6.70;99.90;;;;;;5114204;28;20145;-65
2021/11/25 11:48:18;;;;;;;1.90;1.70;;;-6.50;99.90;;;;;;5114229;28;20016;-65
2021/11/25 11:50:50;;;;;;;1.83;1.63;;;-6.50;99.90;;;;;;5114359;28;20030;-64
2021/11/25 11:53:19;;;;;;;3.78;1.60;;;-6.50;99.90;;;;;;5114562;28;20020;-64
2021/11/25 11:55:46;;;;;;;2.20;1.55;;;-6.60;99.90;;;;;;5100630;28;20107;-64
2021/11/25 11:58:24;;;;;;;2.00;1.70;;;-6.60;99.90;;;;;;5112759;28;20120;-65
2021/11/25 12:00:53;;;;;;;3.20;1.88;;;-6.50;99.90;;;;;;5113784;28;20066;-64
2021/11/25 12:03:40;;;;;;;2.50;1.52;;;-6.50;99.90;;;;;;5093801;28;20479;-64
2021/11/25 12:06:07;;;;;;;1.77;1.50;;;-6.40;99.90;;;;;;5110367;28;20378;-64
2021/11/25 12:08:36;;;;;;;5.18;1.70;;;-6.50;99.90;;;;;;5114141;28;20529;-64
2021/11/25 12:11:03;;;;;;;8.63;1.50;;;-6.40;99.90;;;;;;5114337;27;20024;-65
2021/11/25 12:13:50;;;;;;;4.53;1.40;;;-6.50;99.90;;;;;;5114444;28;20019;-64
2021/11/25 12:16:16;;;;;;;2.30;1.67;;;-6.50;99.90;;;;;;5104010;28;20451;-64
2021/11/25 12:18:44;;;;;;;2.40;1.80;;;-6.40;99.90;;;;;;5095037;28;20044;-65
2021/11/25 12:21:10;;;;;;;1.80;1.35;;;-6.50;99.90;;;;;;5106493;28;20055;-66
2021/11/25 12:23:39;;;;;;;4.03;1.38;;;-6.50;99.90;;;;;;5104207;28;20471;-66
2021/11/25 12:26:06;;;;;;;2.75;1.15;;;-6.60;99.90;;;;;;5106576;28;20049;-66
2021/11/25 12:28:40;;;;;;;1.30;1.20;;;-6.60;99.90;;;;;;5100036;28;20016;-66
2021/11/25 12:31:31;;;;;;;2.45;1.60;;;-6.70;99.90;;;;;;5105803;28;20161;-66
2021/11/25 12:33:54;;;;;;;2.78;1.65;;;-6.60;99.90;;;;;;5112912;28;20513;-66
2021/11/25 12:36:32;;;;;;;2.15;1.55;;;-6.60;99.90;;;;;;5113605;28;20051;-66
2021/11/25 12:38:59;;;;;;;3.63;1.63;;;-6.60;99.90;;;;;;5100592;28;20023;-67
2021/11/25 12:41:25;;;;;;;1.90;1.15;;;-6.60;99.90;;;;;;5113886;28;20030;-66
2021/11/25 12:43:51;;;;;;;1.98;1.70;;;-6.60;99.90;;;;;;5095084;28;20540;-65
2021/11/25 12:46:18;;;;;;;1.30;1.25;;;-5.90;99.90;;;;;;5113349;28;20106;-67
2021/11/25 12:48:49;;;;;;;2.42;1.60;;;-5.70;99.90;;;;;;5113068;28;20035;-66
2021/11/25 12:51:21;;;;;;;2.88;1.73;;;-3.40;99.90;;;;;;5113190;28;20019;-66
2021/11/25 12:53:54;;;;;;;1.58;1.38;;;-3.20;99.90;;;;;;5113368;28;20046;-66
2021/11/25 12:56:23;;;;;;;2.28;1.40;;;-4.30;99.90;;;;;;5112917;28;20036;-63
2021/11/25 12:58:51;;;;;;;2.03;1.58;;;-4.60;99.90;;;;;;5113478;28;20100;-63
2021/11/25 13:01:38;;;;;;;1.73;1.60;;;-5.10;99.90;;;;;;5113302;28;20027;-65
2021/11/25 13:04:20;;;;;;;2.75;1.40;;;-5.40;99.90;;;;;;5113133;28;20379;-65
2021/11/25 13:06:50;;;;;;;3.88;1.52;;;-5.60;99.90;;;;;;5100622;28;20472;-65
2021/11/25 13:09:35;;;;;;;2.25;1.42;;;-5.80;99.90;;;;;;5112412;28;20403;-65
2021/11/25 13:12:04;;;;;;;1.67;1.58;;;-5.90;99.90;;;;;;5103829;28;20051;-65
2021/11/25 13:14:31;;;;;;;1.77;1.40;;;-6.10;99.90;;;;;;5107656;28;20035;-65
2021/11/25 13:17:03;;;;;;;2.10;1.38;;;-6.20;99.90;;;;;;5112665;28;20107;-66
2021/11/25 13:19:33;;;;;;;1.92;1.40;;;-6.00;99.90;;;;;;5106966;28;20166;-63
2021/11/25 13:22:11;;;;;;;1.70;1.60;;;-5.70;99.90;;;;;;5112838;28;20400;-63
2021/11/25 13:24:39;;;;;;;2.05;1.52;;;-5.90;99.90;;;;;;5107415;28;20169;-65
2021/11/25 13:27:10;;;;;;;1.55;1.35;;;-6.00;99.90;;;;;;5112691;28;20106;-66
2021/11/25 13:29:52;;;;;;;2.15;1.70;;;-6.10;99.90;;;;;;5113127;28;20035;-65
2021/11/25 13:32:25;;;;;;;1.75;1.40;;;-6.20;99.90;;;;;;5105843;28;20023;-66
2021/11/25 13:34:55;;;;;;;2.67;1.63;;;-6.20;99.90;;;;;;5098246;28;20031;-66